createdAt,value
2018-11-21T00:00:31.933Z,7.9
2018-11-21T00:01:33.165Z,7.9
2018-11-21T00:02:34.708Z,7.9
2018-11-21T00:03:36.122Z,7.9
2018-11-21T00:04:37.511Z,7.9
2018-11-21T00:05:38.726Z,7.9
2018-11-21T00:06:40.270Z,7.9
2018-11-21T00:07:41.847Z,7.9
2018-11-21T00:08:43.469Z,7.2
2018-11-21T00:09:44.705Z,7.3
2018-11-21T00:10:46.088Z,7.4
2018-11-21T00:11:47.656Z,7.5
2018-11-21T00:12:48.878Z,7.7
2018-11-21T00:13:50.446Z,7.7
2018-11-21T00:14:51.816Z,7.8
2018-11-21T00:15:52.856Z,7.8
2018-11-21T00:16:54.081Z,7.9
2018-11-21T00:17:55.302Z,7.9
2018-11-21T00:19:01.975Z,7.9
2018-11-21T00:20:03.012Z,7.9
2018-11-21T00:21:04.554Z,7.9
2018-11-21T00:22:05.777Z,7.9
2018-11-21T00:23:07.177Z,7.9
2018-11-21T00:24:08.403Z,7.9
2018-11-21T00:25:09.590Z,7.9
2018-11-21T00:26:10.832Z,7.3
2018-11-21T00:27:11.887Z,7.4
2018-11-21T00:28:13.254Z,7.4
2018-11-21T00:29:14.633Z,7.5
2018-11-21T00:30:16.220Z,7.6
2018-11-21T00:31:17.591Z,7.7
2018-11-21T00:32:18.976Z,7.8
2018-11-21T00:33:20.518Z,7.8
2018-11-21T00:34:21.757Z,7.9
2018-11-21T00:35:23.296Z,7.9
2018-11-21T00:36:24.338Z,7.9
2018-11-21T00:37:25.900Z,7.9
2018-11-21T00:38:27.428Z,7.9
2018-11-21T00:39:28.647Z,7.9
2018-11-21T00:40:30.199Z,7.9
2018-11-21T00:41:31.290Z,7.9
2018-11-21T00:42:32.668Z,7.9
2018-11-21T00:43:34.044Z,7.9
2018-11-21T00:44:35.413Z,7.9
2018-11-21T00:45:36.637Z,7.9
2018-11-21T00:46:37.843Z,7.9
2018-11-21T00:47:39.378Z,7.9
2018-11-21T00:48:40.915Z,7.9
2018-11-21T00:49:42.128Z,7.8
2018-11-21T00:50:43.516Z,7.8
2018-11-21T00:51:44.872Z,7.8
2018-11-21T00:52:46.498Z,7.8
2018-11-21T00:53:47.863Z,7.8
2018-11-21T00:54:49.329Z,7.8
2018-11-21T00:55:50.894Z,7.8
2018-11-21T00:56:52.548Z,7.8
2018-11-21T00:57:54.202Z,7.8
2018-11-21T00:58:55.436Z,7.8
2018-11-21T00:59:56.818Z,7.8
2018-11-21T01:00:58.045Z,7.8
2018-11-21T01:01:59.598Z,7.8
2018-11-21T01:03:00.968Z,7.8
2018-11-21T01:04:02.354Z,7.8
2018-11-21T01:05:03.907Z,7.8
2018-11-21T01:06:04.958Z,7.7
2018-11-21T01:07:06.497Z,7.7
2018-11-21T01:08:08.038Z,7.7
2018-11-21T01:09:09.426Z,7.7
2018-11-21T01:10:10.483Z,7.8
2018-11-21T01:11:11.717Z,7.8
2018-11-21T01:12:13.102Z,7.8
2018-11-21T01:13:14.680Z,7.8
2018-11-21T01:14:16.066Z,7.8
2018-11-21T01:15:17.589Z,7.8
2018-11-21T01:16:18.798Z,7.8
2018-11-21T01:17:20.349Z,7.8
2018-11-21T01:18:21.910Z,7.9
2018-11-21T01:19:23.128Z,7.9
2018-11-21T01:20:24.517Z,7.9
2018-11-21T01:21:26.048Z,7.9
2018-11-21T01:22:27.262Z,7.9
2018-11-21T01:23:28.468Z,7.9
2018-11-21T01:24:29.687Z,7.9
2018-11-21T01:25:31.230Z,7.9
2018-11-21T01:26:32.616Z,7.9
2018-11-21T01:27:34.144Z,7.9
2018-11-21T01:28:35.672Z,7.9
2018-11-21T01:29:36.888Z,7.9
2018-11-21T01:30:38.426Z,7.9
2018-11-21T01:31:39.458Z,7.9
2018-11-21T01:32:40.652Z,7.9
2018-11-21T01:33:41.850Z,7.9
2018-11-21T01:34:43.058Z,7.9
2018-11-21T01:35:44.445Z,7.9
2018-11-21T01:36:45.886Z,7.8
2018-11-21T01:37:47.558Z,7.8
2018-11-21T01:38:48.419Z,7.9
2018-11-21T01:39:49.796Z,7.9
2018-11-21T01:40:51.184Z,7.9
2018-11-21T01:41:52.726Z,7.9
2018-11-21T01:42:54.091Z,7.9
2018-11-21T01:43:55.628Z,7.9
2018-11-21T01:44:57.019Z,7.9
2018-11-21T01:45:58.237Z,7.9
2018-11-21T01:46:59.440Z,7.9
2018-11-21T01:48:00.828Z,7.9
2018-11-21T01:49:02.053Z,7.9
2018-11-21T01:50:03.302Z,7.9
2018-11-21T01:51:04.668Z,7.9
2018-11-21T01:52:06.240Z,7.9
2018-11-21T01:53:22.308Z,7.9
2018-11-21T01:54:23.850Z,7.3
2018-11-21T01:55:25.408Z,7.4
2018-11-21T01:56:26.787Z,7.5
2018-11-21T01:57:28.162Z,7.6
2018-11-21T01:58:29.706Z,7.6
2018-11-21T01:59:31.238Z,7.7
2018-11-21T02:00:32.628Z,7.7
2018-11-21T02:01:34.018Z,7.8
2018-11-21T02:02:35.552Z,7.8
2018-11-21T02:03:37.096Z,7.8
2018-11-21T02:04:38.148Z,7.7
2018-11-21T02:05:39.508Z,7.7
2018-11-21T02:06:40.874Z,7.7
2018-11-21T02:07:42.377Z,7.6
2018-11-21T02:08:43.787Z,7.5
2018-11-21T02:09:45.326Z,7.3
2018-11-21T02:10:46.543Z,7.2
2018-11-21T02:11:48.085Z,7.2
2018-11-21T02:12:49.462Z,7.2
2018-11-21T02:13:50.998Z,7.1
2018-11-21T02:14:52.380Z,7.1
2018-11-21T02:15:53.921Z,7.1
2018-11-21T02:16:55.296Z,7.2
2018-11-21T02:17:56.333Z,7.1
2018-11-21T02:18:57.705Z,7.1
2018-11-21T02:19:59.255Z,7.1
2018-11-21T02:21:00.787Z,7.1
2018-11-21T02:22:01.992Z,7.1
2018-11-21T02:23:03.378Z,7.1
2018-11-21T02:24:04.755Z,7.1
2018-11-21T02:25:05.836Z,7.1
2018-11-21T02:26:07.239Z,7.1
2018-11-21T02:27:08.117Z,7.1
2018-11-21T02:28:09.172Z,7.1
2018-11-21T02:29:10.386Z,7.1
2018-11-21T02:30:11.636Z,7.1
2018-11-21T02:31:13.029Z,7.1
2018-11-21T02:32:14.265Z,7.1
2018-11-21T02:33:15.653Z,7.1
2018-11-21T02:34:17.037Z,7.1
2018-11-21T02:35:18.577Z,7.1
2018-11-21T02:36:19.983Z,7.1
2018-11-21T02:37:21.349Z,7.1
2018-11-21T02:38:22.577Z,7.1
2018-11-21T02:39:24.129Z,7.1
2018-11-21T02:40:25.665Z,7.1
2018-11-21T02:41:26.881Z,7.1
2018-11-21T02:42:28.433Z,7.1
2018-11-21T02:43:29.985Z,7.1
2018-11-21T02:44:31.213Z,7.1
2018-11-21T02:45:32.608Z,7.1
2018-11-21T02:46:33.818Z,7.1
2018-11-21T02:47:34.877Z,7.2
2018-11-21T02:48:36.448Z,7.1
2018-11-21T02:49:37.644Z,7.2
2018-11-21T02:50:39.025Z,7.2
2018-11-21T02:51:40.567Z,7.2
2018-11-21T02:52:41.780Z,7.2
2018-11-21T02:53:43.217Z,7.2
2018-11-21T02:54:44.270Z,7.2
2018-11-21T02:55:45.805Z,7.2
2018-11-21T02:56:47.352Z,7.2
2018-11-21T02:57:48.892Z,7.2
2018-11-21T02:58:50.082Z,7.2
2018-11-21T02:59:51.647Z,7.2
2018-11-21T03:00:52.860Z,7.2
2018-11-21T03:01:54.254Z,7.2
2018-11-21T03:02:55.627Z,7.2
2018-11-21T03:03:57.158Z,7.2
2018-11-21T03:04:58.712Z,7.2
2018-11-21T03:05:59.913Z,7.2
2018-11-21T03:07:00.949Z,7.2
2018-11-21T03:08:02.359Z,7.2
2018-11-21T03:09:03.577Z,7.2
2018-11-21T03:10:04.804Z,7.2
2018-11-21T03:11:06.195Z,7.2
2018-11-21T03:12:07.413Z,7.2
2018-11-21T03:13:08.651Z,7.2
2018-11-21T03:14:09.715Z,7.2
2018-11-21T03:15:11.091Z,7.2
2018-11-21T03:16:12.623Z,7.2
2018-11-21T03:17:13.498Z,7.3
2018-11-21T03:18:14.878Z,7.3
2018-11-21T03:19:16.417Z,7.4
2018-11-21T03:20:17.963Z,7.4
2018-11-21T03:21:19.344Z,7.5
2018-11-21T03:22:20.908Z,7.6
2018-11-21T03:23:22.451Z,7.7
2018-11-21T03:24:23.825Z,7.8
2018-11-21T03:25:25.205Z,7.9
2018-11-21T03:26:26.610Z,7.9
2018-11-21T03:27:27.986Z,7.9
2018-11-21T03:28:29.521Z,7.9
2018-11-21T03:29:30.588Z,7.9
2018-11-21T03:30:32.014Z,7.9
2018-11-21T03:31:33.571Z,7.9
2018-11-21T03:32:34.811Z,7.9
2018-11-21T03:33:36.027Z,7.9
2018-11-21T03:34:37.586Z,7.9
2018-11-21T03:35:38.978Z,7.9
2018-11-21T03:36:40.237Z,7.9
2018-11-21T03:37:41.643Z,7.9
2018-11-21T03:38:43.202Z,7.9
2018-11-21T03:39:44.567Z,7.9
2018-11-21T03:40:45.965Z,7.9
2018-11-21T03:41:47.005Z,7.9
2018-11-21T03:42:48.537Z,7.9
2018-11-21T03:43:50.077Z,7.8
2018-11-21T03:44:51.469Z,7.8
2018-11-21T03:45:53.010Z,7.8
2018-11-21T03:46:54.570Z,7.8
2018-11-21T03:47:56.113Z,7.8
2018-11-21T03:48:57.319Z,7.8
2018-11-21T03:49:58.533Z,7.8
2018-11-21T03:51:00.079Z,7.8
2018-11-21T03:52:01.616Z,7.9
2018-11-21T03:53:03.188Z,7.9
2018-11-21T03:54:04.414Z,7.9
2018-11-21T03:55:05.810Z,7.9
2018-11-21T03:56:07.193Z,7.9
2018-11-21T03:57:08.558Z,7.9
2018-11-21T03:58:09.930Z,7.9
2018-11-21T03:59:11.332Z,7.9
2018-11-21T04:00:12.537Z,7.9
2018-11-21T04:01:14.078Z,7.9
2018-11-21T04:02:15.466Z,7.9
2018-11-21T04:03:16.836Z,7.9
2018-11-21T04:04:18.057Z,7.9
2018-11-21T04:05:19.420Z,7.9
2018-11-21T04:06:20.615Z,7.9
2018-11-21T04:07:21.670Z,7.9
2018-11-21T04:08:22.883Z,7.9
2018-11-21T04:09:24.270Z,7.9
2018-11-21T04:10:25.650Z,7.9
2018-11-21T04:11:26.894Z,7.9
2018-11-21T04:12:28.476Z,7.9
2018-11-21T04:13:29.667Z,7.9
2018-11-21T04:14:31.049Z,7.9
2018-11-21T04:15:32.427Z,7.8
2018-11-21T04:16:33.644Z,7.8
2018-11-21T04:17:34.714Z,7.7
2018-11-21T04:18:36.112Z,7.5
2018-11-21T04:19:37.339Z,7.4
2018-11-21T04:20:38.713Z,7.2
2018-11-21T04:21:40.258Z,7.2
2018-11-21T04:22:41.313Z,7.1
2018-11-21T04:23:42.687Z,7.2
2018-11-21T04:24:44.068Z,7.1
2018-11-21T04:25:45.294Z,7.1
2018-11-21T04:26:46.833Z,7.1
2018-11-21T04:27:48.376Z,7.2
2018-11-21T04:28:49.577Z,7.1
2018-11-21T04:29:50.966Z,7.2
2018-11-21T04:30:52.182Z,7.2
2018-11-21T04:31:53.549Z,7.2
2018-11-21T04:32:55.071Z,7.2
2018-11-21T04:33:56.444Z,7.2
2018-11-21T04:34:57.797Z,7.2
2018-11-21T04:35:59.030Z,7.2
2018-11-21T04:37:00.609Z,7.2
2018-11-21T04:38:02.047Z,7.2
2018-11-21T04:39:03.670Z,7.2
2018-11-21T04:40:04.957Z,7.2
2018-11-21T04:41:06.367Z,7.3
2018-11-21T04:42:22.675Z,7.4
2018-11-21T04:43:24.104Z,7.5
2018-11-21T04:44:25.352Z,7.6
2018-11-21T04:45:26.738Z,7.8
2018-11-21T04:46:28.313Z,7.9
2018-11-21T04:47:29.925Z,7.9
2018-11-21T04:48:31.169Z,7.9
2018-11-21T04:49:32.590Z,7.9
2018-11-21T04:50:34.143Z,7.3
2018-11-21T04:51:35.410Z,7.4
2018-11-21T04:52:36.800Z,7.6
2018-11-21T04:53:38.246Z,7.7
2018-11-21T04:54:39.825Z,7.8
2018-11-21T04:55:41.085Z,7.8
2018-11-21T04:56:42.184Z,7.9
2018-11-21T04:57:43.253Z,7.9
2018-11-21T04:58:44.133Z,7.9
2018-11-21T04:59:45.195Z,7.9
2018-11-21T05:00:46.406Z,7.9
2018-11-21T05:01:47.967Z,7.9
2018-11-21T05:02:49.342Z,7.9
2018-11-21T05:03:50.902Z,7.9
2018-11-21T05:04:52.287Z,7.9
2018-11-21T05:05:53.344Z,7.9
2018-11-21T05:06:54.554Z,7.9
2018-11-21T05:07:55.484Z,7.9
2018-11-21T05:08:56.713Z,7.9
2018-11-21T05:09:57.938Z,7.9
2018-11-21T05:10:59.316Z,7.9
2018-11-21T05:12:00.546Z,7.9
2018-11-21T05:13:01.932Z,7.9
2018-11-21T05:14:03.361Z,7.9
2018-11-21T05:15:04.768Z,7.9
2018-11-21T05:16:06.148Z,7.9
2018-11-21T05:17:07.538Z,7.9
2018-11-21T05:18:08.764Z,7.9
2018-11-21T05:19:10.152Z,7.8
2018-11-21T05:20:11.216Z,7.8
2018-11-21T05:21:12.098Z,7.8
2018-11-21T05:22:12.814Z,7.8
2018-11-21T05:23:14.177Z,7.7
2018-11-21T05:24:15.550Z,7.7
2018-11-21T05:25:16.982Z,7.6
2018-11-21T05:26:18.046Z,7.6
2018-11-21T05:27:19.576Z,7.5
2018-11-21T05:28:20.789Z,7.4
2018-11-21T05:29:21.839Z,7.3
2018-11-21T05:30:23.071Z,7.3
2018-11-21T05:31:24.108Z,7.3
2018-11-21T05:32:25.480Z,7.2
2018-11-21T05:33:27.018Z,7.2
2018-11-21T05:34:28.238Z,7.2
2018-11-21T05:35:29.769Z,7.2
2018-11-21T05:36:31.000Z,7.2
2018-11-21T05:37:32.364Z,7.2
2018-11-21T05:38:33.746Z,7.2
2018-11-21T05:39:35.276Z,7.2
2018-11-21T05:40:36.506Z,7.2
2018-11-21T05:41:38.040Z,7.2
2018-11-21T05:42:39.415Z,7.2
2018-11-21T05:43:40.946Z,7.2
2018-11-21T05:44:42.161Z,7.2
2018-11-21T05:45:43.205Z,7.2
2018-11-21T05:46:44.577Z,7.2
2018-11-21T05:47:45.778Z,7.2
2018-11-21T05:48:47.188Z,7.2
2018-11-21T05:49:49.719Z,7.2
2018-11-21T05:50:50.769Z,7.2
2018-11-21T05:51:51.863Z,7.2
2018-11-21T05:52:53.414Z,7.2
2018-11-21T05:53:54.620Z,7.2
2018-11-21T05:54:56.158Z,7.2
2018-11-21T05:55:57.680Z,7.2
2018-11-21T05:56:59.052Z,7.2
2018-11-21T05:58:00.270Z,7.2
2018-11-21T05:59:01.848Z,7.2
2018-11-21T06:00:03.120Z,7.2
2018-11-21T06:01:04.358Z,7.2
2018-11-21T06:02:05.901Z,7.2
2018-11-21T06:03:07.276Z,7.2
2018-11-21T06:04:08.516Z,7.2
2018-11-21T06:05:09.910Z,7.2
2018-11-21T06:06:11.229Z,7.2
2018-11-21T06:07:12.493Z,7.2
2018-11-21T06:08:14.036Z,7.2
2018-11-21T06:09:15.089Z,7.2
2018-11-21T06:10:16.168Z,7.2
2018-11-21T06:11:17.236Z,7.2
2018-11-21T06:12:18.796Z,7.2
2018-11-21T06:13:20.379Z,7.2
2018-11-21T06:14:21.271Z,7.2
2018-11-21T06:15:22.659Z,7.2
2018-11-21T06:16:24.071Z,7.2
2018-11-21T06:17:25.278Z,7.2
2018-11-21T06:18:26.676Z,7.2
2018-11-21T06:19:28.462Z,7.2
2018-11-21T06:20:29.998Z,7.2
2018-11-21T06:21:31.375Z,7.2
2018-11-21T06:23:02.215Z,7.2
2018-11-21T06:24:03.598Z,7.2
2018-11-21T06:25:04.978Z,7.2
2018-11-21T06:26:06.188Z,7.2
2018-11-21T06:27:07.411Z,7.2
2018-11-21T06:28:08.789Z,7.2
2018-11-21T06:29:10.204Z,7.2
2018-11-21T06:30:11.759Z,7.3
2018-11-21T06:31:13.175Z,7.3
2018-11-21T06:32:15.025Z,7.4
2018-11-21T06:33:16.380Z,7.4
2018-11-21T06:34:17.751Z,7.5
2018-11-21T06:35:19.141Z,7.5
2018-11-21T06:36:20.549Z,7.6
2018-11-21T06:37:22.098Z,7.7
2018-11-21T06:38:23.686Z,7.7
2018-11-21T06:39:25.058Z,7.8
2018-11-21T06:40:26.599Z,7.8
2018-11-21T06:41:28.175Z,7.8
2018-11-21T06:42:29.720Z,7.8
2018-11-21T06:43:31.259Z,7.8
2018-11-21T06:44:32.815Z,7.9
2018-11-21T06:45:34.368Z,7.9
2018-11-21T06:46:35.958Z,7.9
2018-11-21T06:47:37.354Z,7.9
2018-11-21T06:48:38.898Z,7.9
2018-11-21T06:49:40.448Z,7.9
2018-11-21T06:50:41.995Z,7.5
2018-11-21T06:51:43.536Z,7.7
2018-11-21T06:52:44.919Z,7.8
2018-11-21T06:53:46.310Z,7.9
2018-11-21T06:54:47.716Z,7.9
2018-11-21T06:55:49.308Z,7.9
2018-11-21T06:56:50.867Z,7.9
2018-11-21T06:57:52.429Z,7.9
2018-11-21T06:58:56.782Z,7.2
2018-11-21T06:59:58.317Z,7.3
2018-11-21T07:01:00.469Z,7.4
2018-11-21T07:02:02.031Z,7.5
2018-11-21T07:03:03.581Z,7.6
2018-11-21T07:04:05.149Z,7.7
2018-11-21T07:05:06.686Z,7.8
2018-11-21T07:06:08.076Z,7.8
2018-11-21T07:07:09.110Z,7.9
2018-11-21T07:08:10.502Z,7.9
2018-11-21T07:09:12.037Z,7.9
2018-11-21T07:10:13.631Z,7.9
2018-11-21T07:11:15.005Z,7.9
2018-11-21T07:12:16.555Z,7.9
2018-11-21T07:13:18.104Z,7.9
2018-11-21T07:14:19.494Z,7.9
2018-11-21T07:15:21.079Z,7.9
2018-11-21T07:16:22.642Z,7.9
2018-11-21T07:17:24.202Z,7.9
2018-11-21T07:18:25.760Z,7.9
2018-11-21T07:19:27.153Z,7.9
2018-11-21T07:20:28.707Z,7.9
2018-11-21T07:21:30.241Z,7.9
2018-11-21T07:22:31.783Z,7.9
2018-11-21T07:23:33.375Z,7.8
2018-11-21T07:24:34.930Z,7.8
2018-11-21T07:25:36.700Z,7.9
2018-11-21T07:26:38.238Z,7.9
2018-11-21T07:27:39.797Z,7.9
2018-11-21T07:28:41.189Z,7.9
2018-11-21T07:29:42.740Z,7.9
2018-11-21T07:30:44.293Z,7.9
2018-11-21T07:31:45.868Z,7.2
2018-11-21T07:32:47.469Z,7.3
2018-11-21T07:33:49.003Z,7.3
2018-11-21T07:34:50.369Z,7.3
2018-11-21T07:35:51.921Z,7.3
2018-11-21T07:36:53.505Z,7.2
2018-11-21T07:37:55.048Z,7.2
2018-11-21T07:38:56.603Z,7.2
2018-11-21T07:39:58.160Z,7.2
2018-11-21T07:40:59.715Z,7.2
2018-11-21T07:42:01.250Z,7.2
2018-11-21T07:43:02.815Z,7.2
2018-11-21T07:44:04.355Z,7.1
2018-11-21T07:45:05.897Z,7.1
2018-11-21T07:46:07.479Z,7.2
2018-11-21T07:47:09.049Z,7.1
2018-11-21T07:48:10.430Z,7.1
2018-11-21T07:49:11.956Z,7.1
2018-11-21T07:50:13.499Z,7.1
2018-11-21T07:51:15.055Z,7.1
2018-11-21T07:52:31.337Z,7.2
2018-11-21T07:53:32.886Z,7.2
2018-11-21T07:54:34.429Z,7.1
2018-11-21T07:55:35.828Z,7.1
2018-11-21T07:56:37.367Z,7.2
2018-11-21T07:57:38.939Z,7.2
2018-11-21T07:58:40.479Z,7.2
2018-11-21T07:59:42.011Z,7.2
2018-11-21T08:00:43.424Z,7.2
2018-11-21T08:01:44.797Z,7.2
2018-11-21T08:02:46.190Z,7.2
2018-11-21T08:03:47.720Z,7.2
2018-11-21T08:04:48.952Z,7.3
2018-11-21T08:05:50.479Z,7.3
2018-11-21T08:06:52.038Z,7.3
2018-11-21T08:07:53.594Z,7.4
2018-11-21T08:08:54.989Z,7.4
2018-11-21T08:09:56.553Z,7.5
2018-11-21T08:10:57.933Z,7.6
2018-11-21T08:11:59.484Z,7.7
2018-11-21T08:13:00.860Z,7.7
2018-11-21T08:14:02.436Z,7.7
2018-11-21T08:15:03.823Z,7.8
2018-11-21T08:16:05.389Z,7.9
2018-11-21T08:17:06.925Z,7.9
2018-11-21T08:18:08.470Z,7.9
2018-11-21T08:19:10.016Z,7.9
2018-11-21T08:20:11.559Z,7.9
2018-11-21T08:21:13.131Z,7.9
2018-11-21T08:22:14.513Z,7.9
2018-11-21T08:23:16.087Z,7.9
2018-11-21T08:24:17.489Z,7.2
2018-11-21T08:25:19.039Z,7.3
2018-11-21T08:26:20.611Z,7.3
2018-11-21T08:27:22.199Z,7.4
2018-11-21T08:28:23.778Z,7.4
2018-11-21T08:29:25.329Z,7.4
2018-11-21T08:30:26.873Z,7.5
2018-11-21T08:31:28.407Z,7.5
2018-11-21T08:32:29.951Z,7.6
2018-11-21T08:33:35.529Z,7.7
2018-11-21T08:34:37.088Z,7.7
2018-11-21T08:35:38.650Z,7.8
2018-11-21T08:36:40.218Z,7.8
2018-11-21T08:37:41.612Z,7.9
2018-11-21T08:38:42.826Z,7.9
2018-11-21T08:39:44.212Z,7.9
2018-11-21T08:40:45.772Z,7.9
2018-11-21T08:41:47.160Z,7.9
2018-11-21T08:42:48.703Z,7.9
2018-11-21T08:43:50.082Z,7.9
2018-11-21T08:44:51.490Z,7.9
2018-11-21T08:45:53.057Z,7.3
2018-11-21T08:46:54.609Z,7.4
2018-11-21T08:47:56.158Z,7.6
2018-11-21T08:48:57.713Z,7.7
2018-11-21T08:49:58.921Z,7.8
2018-11-21T08:51:00.490Z,7.9
2018-11-21T08:52:02.044Z,7.9
2018-11-21T08:53:03.600Z,7.9
2018-11-21T08:54:05.146Z,7.9
2018-11-21T08:55:10.587Z,7.9
2018-11-21T08:56:11.980Z,7.2
2018-11-21T08:57:13.527Z,7.3
2018-11-21T08:58:15.073Z,7.4
2018-11-21T08:59:16.463Z,7.4
2018-11-21T09:00:18.016Z,7.5
2018-11-21T09:01:19.581Z,7.6
2018-11-21T09:02:21.138Z,7.6
2018-11-21T09:03:22.687Z,7.7
2018-11-21T09:04:24.081Z,7.8
2018-11-21T09:05:25.608Z,7.8
2018-11-21T09:06:26.984Z,7.8
2018-11-21T09:07:28.540Z,7.8
2018-11-21T09:08:30.106Z,7.7
2018-11-21T09:09:31.478Z,7.6
2018-11-21T09:11:33.405Z,7.3
2018-11-21T09:12:34.639Z,7.2
2018-11-21T09:13:36.199Z,7.2
2018-11-21T09:15:54.944Z,7.1
2018-11-21T09:16:56.347Z,7.1
2018-11-21T09:17:57.881Z,7.1
2018-11-21T09:18:59.433Z,7.2
2018-11-21T09:20:00.994Z,7.1
2018-11-21T09:21:02.547Z,7.2
2018-11-21T09:22:04.099Z,7.2
2018-11-21T09:23:05.500Z,7.2
2018-11-21T09:24:07.052Z,7.2
2018-11-21T09:25:08.599Z,7.2
2018-11-21T09:26:10.149Z,7.2
2018-11-21T09:27:11.737Z,7.2
2018-11-21T09:28:13.180Z,7.2
2018-11-21T09:29:14.764Z,7.2
2018-11-21T09:30:16.142Z,7.2
2018-11-21T09:31:17.542Z,7.2
2018-11-21T09:32:18.918Z,7.2
2018-11-21T09:33:20.484Z,7.3
2018-11-21T09:34:22.040Z,7.3
2018-11-21T09:35:23.472Z,7.4
2018-11-21T09:36:25.042Z,7.4
2018-11-21T09:37:26.448Z,7.5
2018-11-21T09:38:27.850Z,7.6
2018-11-21T09:39:29.242Z,7.6
2018-11-21T09:40:30.811Z,7.7
2018-11-21T09:41:32.348Z,7.7
2018-11-21T09:42:33.914Z,7.8
2018-11-21T09:43:35.480Z,7.8
2018-11-21T09:44:37.038Z,7.9
2018-11-21T09:45:38.598Z,7.9
2018-11-21T09:46:40.160Z,7.9
2018-11-21T09:47:41.726Z,7.9
2018-11-21T09:48:43.262Z,7.8
2018-11-21T09:49:44.810Z,7.8
2018-11-21T09:50:46.042Z,7.8
2018-11-21T09:51:47.451Z,7.8
2018-11-21T09:52:52.019Z,7.7
2018-11-21T09:53:53.405Z,7.7
2018-11-21T09:54:54.961Z,7.7
2018-11-21T09:55:56.553Z,7.7
2018-11-21T09:56:57.943Z,7.7
2018-11-21T09:57:59.509Z,7.5
2018-11-21T09:59:01.044Z,7.5
2018-11-21T10:00:02.642Z,7.5
2018-11-21T10:01:04.197Z,7.5
2018-11-21T10:02:05.776Z,7.5
2018-11-21T10:03:07.330Z,7.5
2018-11-21T10:04:08.898Z,7.5
2018-11-21T10:05:10.295Z,7.4
2018-11-21T10:06:11.855Z,7.4
2018-11-21T10:07:13.416Z,7.4
2018-11-21T10:08:15.003Z,7.4
2018-11-21T10:09:16.595Z,7.4
2018-11-21T10:10:18.155Z,7.4
2018-11-21T10:11:19.568Z,7.4
2018-11-21T10:12:21.124Z,7.4
2018-11-21T10:13:22.676Z,7.4
2018-11-21T10:14:24.246Z,7.3
2018-11-21T10:15:25.839Z,7.3
2018-11-21T10:16:27.400Z,7.3
2018-11-21T10:17:28.971Z,7.3
2018-11-21T10:18:30.540Z,7.3
2018-11-21T10:19:32.110Z,7.4
2018-11-21T10:20:33.693Z,7.4
2018-11-21T10:21:35.249Z,7.5
2018-11-21T10:22:36.680Z,7.5
2018-11-21T10:23:38.272Z,7.5
2018-11-21T10:24:39.655Z,7.6
2018-11-21T10:25:41.052Z,7.7
2018-11-21T10:26:42.619Z,7.7
2018-11-21T10:27:44.181Z,7.8
2018-11-21T10:28:45.553Z,7.8
2018-11-21T10:29:47.110Z,7.8
2018-11-21T10:30:48.647Z,7.8
2018-11-21T10:31:50.207Z,7.8
2018-11-21T10:32:51.588Z,7.8
2018-11-21T10:33:53.160Z,7.8
2018-11-21T10:34:54.700Z,7.8
2018-11-21T10:35:56.259Z,7.9
2018-11-21T10:36:57.827Z,7.9
2018-11-21T10:37:59.412Z,7.9
2018-11-21T10:39:00.962Z,7.9
2018-11-21T10:40:02.368Z,7.2
2018-11-21T10:41:03.938Z,7.3
2018-11-21T10:42:05.485Z,7.3
2018-11-21T10:43:07.068Z,7.3
2018-11-21T10:44:08.634Z,7.2
2018-11-21T10:45:10.797Z,7.2
2018-11-21T10:46:12.376Z,7.2
2018-11-21T10:47:13.778Z,7.2
2018-11-21T10:48:15.390Z,7.2
2018-11-21T10:49:16.938Z,7.2
2018-11-21T10:50:18.516Z,7.2
2018-11-21T10:51:20.093Z,7.2
2018-11-21T10:52:21.645Z,7.2
2018-11-21T10:53:23.226Z,7.2
2018-11-21T10:54:24.785Z,7.2
2018-11-21T10:55:26.178Z,7.2
2018-11-21T10:56:27.733Z,7.2
2018-11-21T10:57:29.281Z,7.2
2018-11-21T10:58:30.848Z,7.2
2018-11-21T10:59:32.472Z,7.2
2018-11-21T11:00:33.862Z,7.2
2018-11-21T11:01:35.248Z,7.2
2018-11-21T11:02:36.788Z,7.2
2018-11-21T11:03:38.332Z,7.2
2018-11-21T11:04:39.888Z,7.2
2018-11-21T11:05:41.486Z,7.2
2018-11-21T11:06:43.038Z,7.2
2018-11-21T11:07:44.646Z,7.2
2018-11-21T11:08:46.205Z,7.2
2018-11-21T11:09:47.789Z,7.2
2018-11-21T11:10:49.361Z,7.2
2018-11-21T11:11:50.898Z,7.2
2018-11-21T11:12:52.295Z,7.3
2018-11-21T11:13:53.853Z,7.3
2018-11-21T11:14:55.229Z,7.4
2018-11-21T11:15:56.786Z,7.4
2018-11-21T11:16:58.348Z,7.5
2018-11-21T11:18:01.151Z,7.6
2018-11-21T11:19:02.700Z,7.6
2018-11-21T11:20:09.687Z,7.7
2018-11-21T11:21:12.572Z,7.7
2018-11-21T11:22:14.152Z,7.8
2018-11-21T11:23:15.740Z,7.8
2018-11-21T11:24:17.301Z,7.8
2018-11-21T11:25:18.692Z,7.8
2018-11-21T11:26:19.916Z,7.8
2018-11-21T11:27:21.313Z,7.9
2018-11-21T11:28:22.698Z,7.9
2018-11-21T11:29:24.263Z,7.9
2018-11-21T11:30:25.320Z,7.3
2018-11-21T11:31:26.888Z,7.4
2018-11-21T11:32:27.948Z,7.6
2018-11-21T11:33:29.172Z,7.7
2018-11-21T11:34:30.399Z,7.8
2018-11-21T11:35:31.638Z,7.9
2018-11-21T11:36:33.218Z,7.9
2018-11-21T11:37:34.258Z,7.9
2018-11-21T11:38:35.535Z,7.9
2018-11-21T11:39:36.924Z,7.9
2018-11-21T11:40:38.311Z,7.9
2018-11-21T11:41:39.704Z,7.8
2018-11-21T11:42:41.088Z,7.8
2018-11-21T11:43:42.489Z,7.8
2018-11-21T11:44:43.732Z,7.8
2018-11-21T11:45:45.122Z,7.8
2018-11-21T11:46:46.515Z,7.8
2018-11-21T11:47:48.078Z,7.7
2018-11-21T11:48:49.298Z,7.7
2018-11-21T11:49:50.546Z,7.7
2018-11-21T11:50:51.432Z,7.7
2018-11-21T11:51:52.979Z,7.6
2018-11-21T11:52:54.343Z,7.6
2018-11-21T11:53:55.560Z,7.6
2018-11-21T11:54:57.113Z,7.7
2018-11-21T11:55:58.490Z,7.7
2018-11-21T11:56:59.875Z,7.8
2018-11-21T11:58:01.430Z,7.8
2018-11-21T11:59:03.026Z,7.9
2018-11-21T12:00:04.574Z,7.9
2018-11-21T12:01:05.800Z,7.9
2018-11-21T12:02:07.192Z,7.9
2018-11-21T12:03:08.428Z,7.9
2018-11-21T12:04:09.817Z,7.9
2018-11-21T12:05:11.200Z,7.9
2018-11-21T12:06:12.605Z,7.8
2018-11-21T12:07:14.350Z,7.8
2018-11-21T12:08:15.553Z,7.8
2018-11-21T12:09:16.943Z,7.8
2018-11-21T12:10:18.362Z,7.8
2018-11-21T12:11:19.432Z,7.8
2018-11-21T12:12:20.672Z,7.9
2018-11-21T12:13:22.048Z,7.9
2018-11-21T12:14:23.598Z,7.9
2018-11-21T12:15:25.164Z,7.9
2018-11-21T12:16:26.567Z,7.9
2018-11-21T12:17:28.115Z,7.9
2018-11-21T12:18:29.687Z,7.2
2018-11-21T12:19:31.258Z,7.4
2018-11-21T12:20:32.486Z,7.6
2018-11-21T12:21:33.717Z,7.7
2018-11-21T12:22:35.264Z,7.8
2018-11-21T12:23:36.656Z,7.8
2018-11-21T12:24:38.054Z,7.8
2018-11-21T12:25:39.639Z,7.8
2018-11-21T12:26:40.701Z,7.7
2018-11-21T12:27:42.303Z,7.7
2018-11-21T12:28:43.588Z,7.5
2018-11-21T12:29:44.818Z,7.4
2018-11-21T12:30:46.048Z,7.3
2018-11-21T12:31:47.458Z,7.1
2018-11-21T12:32:49.028Z,7.1
2018-11-21T12:33:50.558Z,7.1
2018-11-21T12:34:51.792Z,7.1
2018-11-21T12:35:53.188Z,7.1
2018-11-21T12:36:54.578Z,7.1
2018-11-21T12:37:56.009Z,7.1
2018-11-21T12:38:57.583Z,7.1
2018-11-21T12:39:58.635Z,7.1
2018-11-21T12:41:00.188Z,7.1
2018-11-21T12:42:01.749Z,7.1
2018-11-21T12:43:02.813Z,7.1
2018-11-21T12:44:03.918Z,7.2
2018-11-21T12:45:05.175Z,7.2
2018-11-21T12:46:06.403Z,7.2
2018-11-21T12:47:07.965Z,7.2
2018-11-21T12:48:09.330Z,7.2
2018-11-21T12:49:10.868Z,7.1
2018-11-21T12:50:12.429Z,7.2
2018-11-21T12:51:13.970Z,7.2
2018-11-21T12:52:15.553Z,7.2
2018-11-21T12:53:17.102Z,7.2
2018-11-21T12:54:18.648Z,7.2
2018-11-21T12:55:20.181Z,7.2
2018-11-21T12:56:21.728Z,7.2
2018-11-21T12:57:23.302Z,7.2
2018-11-21T12:58:25.862Z,7.2
2018-11-21T12:59:27.419Z,7.3
2018-11-21T13:00:28.986Z,7.4
2018-11-21T13:01:30.568Z,7.4
2018-11-21T13:02:31.971Z,7.5
2018-11-21T13:03:33.519Z,7.6
2018-11-21T13:04:35.073Z,7.6
2018-11-21T13:05:36.646Z,7.7
2018-11-21T13:06:37.869Z,7.7
2018-11-21T13:07:39.417Z,7.7
2018-11-21T13:08:40.830Z,7.7
2018-11-21T13:09:42.379Z,7.7
2018-11-21T13:10:43.963Z,7.7
2018-11-21T13:11:45.585Z,7.7
2018-11-21T13:12:47.140Z,7.7
2018-11-21T13:13:48.697Z,7.7
2018-11-21T13:14:50.296Z,7.7
2018-11-21T13:15:51.858Z,7.7
2018-11-21T13:16:53.240Z,7.7
2018-11-21T13:17:54.798Z,7.7
2018-11-21T13:18:56.355Z,7.7
2018-11-21T13:19:57.899Z,7.7
2018-11-21T13:20:59.470Z,7.7
2018-11-21T13:22:01.040Z,7.7
2018-11-21T13:23:02.466Z,7.7
2018-11-21T13:24:04.035Z,7.7
2018-11-21T13:25:05.120Z,7.7
2018-11-21T13:26:06.534Z,7.7
2018-11-21T13:27:07.922Z,7.7
2018-11-21T13:28:09.336Z,7.7
2018-11-21T13:29:18.370Z,7.8
2018-11-21T13:30:19.426Z,7.8
2018-11-21T13:31:20.820Z,7.8
2018-11-21T13:32:22.220Z,7.8
2018-11-21T13:33:23.609Z,7.8
2018-11-21T13:34:24.526Z,7.8
2018-11-21T13:35:26.078Z,7.8
2018-11-21T13:36:27.458Z,7.8
2018-11-21T13:37:29.021Z,7.8
2018-11-21T13:38:30.603Z,7.8
2018-11-21T13:39:31.840Z,7.7
2018-11-21T13:40:33.254Z,7.7
2018-11-21T13:41:34.795Z,7.7
2018-11-21T13:42:36.368Z,7.7
2018-11-21T13:43:37.924Z,7.7
2018-11-21T13:44:39.478Z,7.7
2018-11-21T13:45:41.048Z,7.7
2018-11-21T13:46:42.598Z,7.7
2018-11-21T13:47:43.820Z,7.7
2018-11-21T13:48:45.394Z,7.7
2018-11-21T13:49:46.954Z,7.7
2018-11-21T13:50:48.514Z,7.7
2018-11-21T13:51:50.068Z,7.7
2018-11-21T13:52:51.608Z,7.7
2018-11-21T13:53:53.171Z,7.7
2018-11-21T13:54:54.568Z,7.7
2018-11-21T13:55:56.282Z,7.7
2018-11-21T13:56:57.540Z,7.6
2018-11-21T13:57:59.132Z,7.7
2018-11-21T13:59:00.554Z,7.7
2018-11-21T14:00:01.598Z,7.7
2018-11-21T14:01:02.857Z,7.7
2018-11-21T14:02:04.254Z,7.8
2018-11-21T14:03:05.812Z,7.8
2018-11-21T14:04:07.047Z,7.9
2018-11-21T14:05:08.616Z,7.9
2018-11-21T14:06:10.017Z,7.9
2018-11-21T14:07:11.420Z,7.9
2018-11-21T14:08:12.665Z,7.1
2018-11-21T14:09:14.077Z,7.3
2018-11-21T14:10:15.474Z,7.3